createdAt,value
2017-06-28T00:02:28.192Z,7.40
2017-06-28T00:23:35.200Z,7.33
2017-06-28T00:44:41.471Z,7.40
2017-06-28T01:05:48.522Z,7.53
2017-06-28T01:26:54.240Z,6.27
2017-06-28T01:48:01.071Z,6.93
2017-06-28T02:09:08.014Z,6.40
2017-06-28T02:30:13.640Z,6.83
2017-06-28T02:51:19.973Z,6.20
2017-06-28T03:12:26.647Z,6.33
2017-06-28T03:33:32.755Z,5.80
2017-06-28T03:54:40.365Z,5.63
2017-06-28T04:15:47.283Z,6.40
2017-06-28T04:36:54.603Z,6.30
2017-06-28T04:58:00.845Z,6.57
2017-06-28T05:25:20.088Z,7.20
2017-06-28T05:46:25.822Z,7.50
2017-06-28T06:07:31.073Z,7.20
2017-06-28T06:28:37.438Z,7.30
2017-06-28T06:49:43.612Z,7.63
2017-06-28T07:10:49.311Z,7.73
2017-06-28T07:31:56.123Z,7.17
2017-06-28T07:53:02.444Z,6.43
2017-06-28T08:14:09.048Z,7.40
2017-06-28T08:35:15.464Z,8.17
2017-06-28T08:56:21.548Z,8.10
2017-06-28T09:17:27.913Z,8.20
2017-06-28T09:38:34.124Z,8.50
2017-06-28T09:59:40.914Z,9.40
2017-06-28T10:20:46.771Z,8.40
2017-06-28T10:41:52.674Z,8.67
2017-06-28T11:02:59.048Z,8.70
2017-06-28T11:24:05.034Z,9.40
2017-06-28T11:45:10.902Z,10.43
2017-06-28T12:06:17.217Z,11.00
2017-06-28T12:27:22.608Z,9.67
2017-06-28T12:48:28.067Z,8.40
2017-06-28T13:09:35.299Z,5.73
2017-06-28T13:30:41.938Z,5.37
2017-06-28T13:51:47.639Z,3.93
2017-06-28T14:12:54.657Z,5.10
2017-06-28T14:34:01.522Z,4.43
2017-06-28T14:55:08.811Z,5.57
2017-06-28T15:16:16.554Z,5.20
2017-06-28T15:37:22.637Z,7.20
2017-06-28T15:58:29.870Z,6.20
2017-06-28T16:19:36.532Z,6.50
2017-06-28T16:40:42.739Z,5.90
2017-06-28T17:01:48.529Z,5.33
2017-06-28T17:26:02.286Z,6.57
2017-06-28T17:47:09.346Z,7.30
2017-06-28T18:08:16.476Z,6.53
2017-06-28T18:29:22.879Z,7.83
2017-06-28T18:50:29.201Z,4.13
2017-06-28T19:11:36.431Z,3.07
2017-06-28T19:32:43.612Z,4.07
2017-06-28T19:53:50.905Z,4.10
2017-06-28T20:14:57.508Z,3.87
2017-06-28T20:36:19.535Z,3.03
2017-06-28T20:57:26.616Z,3.67
2017-06-28T21:18:33.045Z,4.03
2017-06-28T21:39:38.215Z,3.30
2017-06-28T22:00:45.323Z,3.87
2017-06-28T22:21:51.575Z,4.30
2017-06-28T22:42:57.352Z,5.40
2017-06-28T23:04:03.833Z,4.70
2017-06-28T23:25:11.187Z,6.73
2017-06-28T23:46:17.472Z,3.63
